KOSC/OSC METAR and TAF weather

Enter ICAO airport designator
Station Type Date Time Source
KOSC METAR 2020/01/22 18:16 UTC NOAA

KOSC 221816Z AUTO 21013KT 10SM CLR M01/M06 A3014 RMK AO2 T10111063


Station Type Date Time Source
KOSC Decoded METAR 2020/01/22 18:16 UTC NOAA

Oscoda, Oscoda-Wurtsmith Airport, MI, United States (KOSC) 44-27N 083-22W
Jan 22, 2020 - 01:16 PM EST / 2020.01.22 1816 UTC
Wind: from the SSW (210 degrees) at 15 MPH (13 KT):0
Visibility: 10 mile(s):0
Sky conditions: clear
Temperature: 30.0 F (-1.1 C)
Windchill: 19 F (-7 C):1
Dew Point: 20.7 F (-6.3 C)
Relative Humidity: 67%
Pressure (altimeter): 30.14 in. Hg (1020 hPa)
ob: KOSC 221816Z AUTO 21013KT 10SM CLR M01/M06 A3014 RMK AO2 T10111063
cycle: 18

Station Type Date Time Source
KOSC TAF UTC NOAA

Error!

Example: see airport list